createdAt,value
2022-09-12T00:04:12.306Z,24.57
2022-09-12T00:09:12.185Z,24.10
2022-09-12T00:14:14.332Z,24.22
2022-09-12T00:19:27.528Z,24.52
2022-09-12T00:24:24.956Z,24.07
2022-09-12T00:29:34.137Z,24.00
2022-09-12T00:34:42.300Z,24.38
2022-09-12T00:39:56.189Z,24.38
2022-09-12T00:46:06.494Z,23.83
2022-09-12T00:51:16.624Z,23.84
2022-09-12T00:56:19.931Z,23.84
2022-09-12T01:01:17.631Z,24.17
2022-09-12T01:06:24.936Z,23.92
2022-09-12T01:11:24.804Z,24.07
2022-09-12T01:16:22.571Z,23.91
2022-09-12T01:21:34.186Z,23.61
2022-09-12T01:26:57.723Z,23.40
2022-09-12T01:32:06.735Z,23.86
2022-09-12T01:37:12.971Z,23.31
2022-09-12T01:42:25.768Z,23.45
2022-09-12T01:47:36.459Z,23.60
2022-09-12T01:52:39.053Z,23.27
2022-09-12T01:57:40.826Z,23.15
2022-09-12T02:07:47.759Z,22.96
2022-09-12T02:12:51.483Z,23.24
2022-09-12T02:17:52.316Z,23.24
2022-09-12T02:23:01.754Z,23.18
2022-09-12T02:28:06.655Z,23.12
2022-09-12T02:33:17.087Z,22.75
2022-09-12T02:38:22.540Z,22.69
2022-09-12T02:43:20.472Z,22.80
2022-09-12T02:48:23.776Z,22.53
2022-09-12T02:53:22.804Z,22.14
2022-09-12T02:58:28.653Z,22.39
2022-09-12T03:03:56.132Z,22.15
2022-09-12T03:09:08.123Z,21.99
2022-09-12T03:14:20.640Z,22.11
2022-09-12T03:19:25.283Z,21.61
2022-09-12T03:24:31.467Z,21.52
2022-09-12T03:29:39.985Z,21.55
2022-09-12T03:34:40.880Z,21.36
2022-09-12T03:39:42.069Z,21.22
2022-09-12T03:44:39.347Z,21.71
2022-09-12T03:49:41.667Z,21.26
2022-09-12T03:54:42.308Z,21.15
2022-09-12T03:59:43.270Z,21.22
2022-09-12T04:04:43.338Z,21.06
2022-09-12T04:09:45.592Z,21.05
2022-09-12T04:15:01.637Z,20.92
2022-09-12T04:20:14.147Z,20.93
2022-09-12T04:25:15.395Z,21.30
2022-09-12T04:30:15.256Z,21.26
2022-09-12T04:35:24.817Z,20.95
2022-09-12T04:40:49.307Z,21.12
2022-09-12T04:45:52.470Z,21.32
2022-09-12T04:50:56.436Z,21.29
2022-09-12T04:56:05.719Z,21.08
2022-09-12T05:01:10.970Z,21.08
2022-09-12T05:06:15.174Z,21.07
2022-09-12T05:11:24.802Z,21.61
2022-09-12T05:16:26.794Z,21.34
2022-09-12T05:21:35.285Z,21.60
2022-09-12T05:26:54.749Z,22.74
2022-09-12T05:31:53.710Z,24.43
2022-09-12T05:36:58.347Z,27.07
2022-09-12T05:42:18.386Z,29.38
2022-09-12T05:47:28.290Z,31.23
2022-09-12T05:52:41.601Z,33.36
2022-09-12T05:58:09.937Z,34.72
2022-09-12T06:03:34.935Z,36.71
2022-09-12T06:08:44.677Z,37.53
2022-09-12T06:14:07.337Z,38.63
2022-09-12T06:19:32.258Z,39.72
2022-09-12T11:15:04.088Z,34.87
2022-09-12T11:20:42.554Z,34.21
2022-09-12T11:25:47.472Z,34.05
2022-09-12T11:31:00.043Z,33.49
2022-09-12T11:36:07.073Z,33.41
2022-09-12T11:41:23.965Z,32.95
2022-09-12T11:46:40.835Z,33.10
2022-09-12T11:52:03.923Z,33.07
2022-09-12T11:57:18.455Z,33.03
2022-09-12T12:08:23.275Z,33.13
2022-09-12T12:13:25.707Z,32.86
2022-09-12T12:18:24.568Z,32.80
2022-09-12T12:23:32.992Z,32.53
2022-09-12T12:29:00.327Z,32.50
2022-09-12T12:34:56.597Z,32.02
2022-09-12T12:40:24.680Z,31.65
2022-09-12T12:46:23.239Z,31.76
2022-09-12T12:51:42.951Z,31.23
2022-09-12T12:57:13.100Z,31.49
2022-09-12T13:02:43.662Z,31.07
2022-09-12T13:08:15.022Z,31.36
2022-09-12T13:13:33.339Z,31.71
2022-09-12T13:18:43.361Z,31.67
2022-09-12T13:23:45.053Z,31.42
2022-09-12T13:28:49.612Z,31.40
2022-09-12T13:33:55.971Z,31.26
2022-09-12T13:40:00.599Z,30.78
2022-09-12T13:45:37.512Z,30.68
2022-09-12T13:50:54.097Z,30.39
2022-09-12T13:55:57.511Z,29.92
2022-09-12T14:01:04.764Z,30.14
2022-09-12T14:06:03.160Z,30.31
2022-09-12T14:12:11.862Z,30.44
2022-09-12T14:17:33.625Z,30.54
2022-09-12T14:22:34.322Z,30.67
2022-09-12T14:27:40.194Z,30.79
2022-09-12T14:33:02.873Z,30.62
2022-09-12T14:38:39.419Z,30.18
2022-09-12T14:44:03.729Z,30.25
2022-09-12T14:49:08.615Z,30.16
2022-09-12T14:54:42.061Z,30.61
2022-09-12T14:59:40.458Z,30.23
2022-09-12T15:05:29.716Z,29.75
2022-09-12T15:10:36.466Z,29.53
2022-09-12T15:15:34.568Z,29.35
2022-09-12T15:20:35.790Z,28.70
2022-09-12T15:25:54.462Z,28.15
2022-09-12T15:30:58.781Z,26.98
2022-09-12T15:36:10.222Z,25.31
2022-09-12T15:41:39.101Z,24.07
2022-09-12T15:47:04.996Z,23.07
2022-09-12T15:52:13.454Z,23.24
2022-09-12T15:58:11.105Z,24.02
2022-09-12T16:03:18.153Z,24.25
2022-09-12T16:08:18.646Z,24.46
2022-09-12T16:13:47.977Z,23.83
2022-09-12T16:18:46.805Z,24.23
2022-09-12T16:23:54.544Z,23.77
2022-09-12T16:29:00.363Z,24.68
2022-09-12T16:40:09.376Z,25.16
2022-09-12T16:50:38.760Z,25.38
2022-09-12T16:55:39.101Z,25.36
2022-09-12T17:00:38.051Z,25.56
2022-09-12T17:05:37.982Z,25.65
2022-09-12T17:11:05.168Z,25.73
2022-09-12T17:16:06.914Z,25.50
2022-09-12T17:21:48.375Z,25.53
2022-09-12T17:26:48.575Z,24.59
2022-09-12T17:31:55.456Z,24.82
2022-09-12T17:36:56.173Z,24.36
2022-09-12T17:47:08.080Z,23.73
2022-09-12T17:53:20.071Z,23.48
2022-09-12T17:59:32.769Z,22.45
2022-09-12T18:04:37.354Z,22.82
2022-09-12T18:09:35.841Z,22.97
2022-09-12T18:14:34.476Z,23.01
2022-09-12T18:19:31.944Z,22.76
2022-09-12T18:24:30.506Z,22.52
2022-09-12T18:29:40.279Z,22.60
2022-09-12T18:34:41.203Z,22.27
2022-09-12T18:39:38.156Z,22.26
2022-09-12T18:44:38.493Z,22.29
2022-09-12T18:49:36.891Z,22.75
2022-09-12T18:54:40.872Z,22.71
2022-09-12T18:59:47.369Z,22.00
2022-09-12T19:04:44.569Z,22.35
2022-09-12T19:09:53.938Z,22.12
2022-09-12T19:14:52.672Z,21.84
2022-09-12T19:19:56.991Z,21.36
2022-09-12T19:24:56.385Z,21.56
2022-09-12T19:29:59.047Z,21.67
2022-09-12T19:34:56.588Z,21.92
2022-09-12T19:39:57.067Z,21.31
2022-09-12T19:44:55.522Z,20.56
2022-09-12T19:49:54.838Z,21.26
2022-09-12T19:54:54.162Z,21.37
2022-09-12T19:59:53.892Z,21.01
2022-09-12T20:04:51.888Z,21.33
2022-09-12T20:09:49.233Z,20.98
2022-09-12T20:14:49.136Z,20.39
2022-09-12T20:19:53.430Z,19.95
2022-09-12T20:24:50.887Z,19.74
2022-09-12T20:29:48.995Z,19.42
2022-09-12T20:34:46.356Z,19.73
2022-09-12T20:39:58.835Z,20.23
2022-09-12T20:44:56.262Z,19.89
2022-09-12T20:49:53.512Z,19.75
2022-09-12T20:54:54.277Z,19.77
2022-09-12T21:00:00.860Z,19.28
2022-09-12T21:04:58.035Z,19.26
2022-09-12T21:09:56.014Z,19.55
2022-09-12T21:14:55.764Z,19.57
2022-09-12T21:20:19.897Z,18.73
2022-09-12T21:25:19.682Z,19.02
2022-09-12T21:31:12.293Z,19.18
2022-09-12T21:36:29.686Z,18.93
2022-09-12T21:41:28.477Z,18.73
2022-09-12T21:46:28.333Z,18.90
2022-09-12T21:51:28.961Z,19.09
2022-09-12T21:56:25.869Z,18.90
2022-09-12T22:01:23.429Z,18.99
2022-09-12T22:06:22.496Z,18.32
2022-09-12T22:11:28.669Z,18.53
2022-09-12T22:16:26.501Z,18.52
2022-09-12T22:21:23.833Z,18.22
2022-09-12T22:26:31.341Z,18.25
2022-09-12T22:31:29.101Z,18.23
2022-09-12T22:36:30.459Z,18.01
2022-09-12T22:41:28.403Z,18.22
2022-09-12T22:46:30.087Z,18.21
2022-09-12T22:51:29.910Z,17.75
2022-09-12T22:56:36.605Z,17.58
2022-09-12T23:01:56.335Z,17.69
2022-09-12T23:06:57.491Z,17.62
2022-09-12T23:11:54.465Z,17.52
2022-09-12T23:16:52.185Z,17.59
2022-09-12T23:21:48.760Z,17.60
2022-09-12T23:26:46.224Z,17.15
2022-09-12T23:31:43.157Z,17.34
2022-09-12T23:36:39.973Z,17.35
2022-09-12T23:41:39.883Z,17.25
2022-09-12T23:46:40.889Z,17.63
2022-09-12T23:51:39.083Z,17.67
2022-09-12T23:56:36.931Z,17.62
